createdAt,value
2017-08-02T00:01:35.631Z,20.73
2017-08-02T00:04:02.047Z,20.07
2017-08-02T00:06:29.285Z,20.90
2017-08-02T00:08:55.679Z,22.30
2017-08-02T00:11:22.153Z,21.93
2017-08-02T00:13:48.634Z,19.93
2017-08-02T00:16:15.081Z,21.63
2017-08-02T00:18:41.452Z,21.10
2017-08-02T00:21:07.865Z,21.07
2017-08-02T00:23:34.250Z,21.43
2017-08-02T00:26:00.843Z,21.00
2017-08-02T00:28:28.031Z,22.23
2017-08-02T00:30:54.415Z,18.63
2017-08-02T00:33:20.819Z,22.53
2017-08-02T00:35:47.288Z,20.97
2017-08-02T00:38:13.816Z,21.17
2017-08-02T00:40:40.215Z,19.80
2017-08-02T00:43:06.776Z,21.27
2017-08-02T00:45:33.172Z,20.53
2017-08-02T00:47:59.652Z,21.90
2017-08-02T00:50:26.047Z,19.63
2017-08-02T00:52:52.431Z,22.97
2017-08-02T00:55:18.840Z,22.53
2017-08-02T00:57:45.251Z,21.93
2017-08-02T01:00:11.643Z,22.30
2017-08-02T01:02:38.907Z,21.27
2017-08-02T01:05:06.031Z,22.40
2017-08-02T01:07:32.418Z,19.57
2017-08-02T01:09:58.831Z,21.80
2017-08-02T01:12:25.213Z,22.77
2017-08-02T01:14:51.623Z,21.57
2017-08-02T01:17:18.364Z,21.23
2017-08-02T01:19:45.561Z,21.67
2017-08-02T01:22:12.679Z,21.37
2017-08-02T01:24:39.071Z,21.57
2017-08-02T01:27:05.565Z,22.13
2017-08-02T01:29:32.399Z,20.17
2017-08-02T01:31:59.602Z,21.37
2017-08-02T01:34:26.024Z,20.60
2017-08-02T01:36:52.544Z,21.57
2017-08-02T01:39:19.804Z,21.33
2017-08-02T01:41:47.617Z,21.50
2017-08-02T01:44:14.016Z,21.93
2017-08-02T01:46:40.916Z,21.80
2017-08-02T01:49:09.113Z,21.43
2017-08-02T01:51:36.296Z,22.30
2017-08-02T01:54:03.839Z,20.40
2017-08-02T01:56:30.345Z,21.73
2017-08-02T01:58:56.754Z,21.67
2017-08-02T02:01:24.449Z,22.80
2017-08-02T02:03:51.044Z,22.23
2017-08-02T02:06:17.467Z,19.97
2017-08-02T02:08:44.108Z,21.13
2017-08-02T02:11:11.516Z,21.33
2017-08-02T02:13:38.981Z,22.40
2017-08-02T02:16:05.516Z,21.67
2017-08-02T02:18:32.012Z,22.90
2017-08-02T02:20:58.844Z,22.13
2017-08-02T02:23:26.012Z,22.27
2017-08-02T02:25:52.596Z,21.97
2017-08-02T02:28:20.167Z,24.07
2017-08-02T02:30:46.825Z,23.67
2017-08-02T02:33:14.067Z,23.00
2017-08-02T02:35:40.562Z,20.73
2017-08-02T02:38:07.859Z,22.20
2017-08-02T02:40:35.116Z,23.33
2017-08-02T02:43:01.694Z,21.50
2017-08-02T02:45:28.235Z,23.13
2017-08-02T02:47:54.732Z,21.50
2017-08-02T02:50:21.113Z,22.30
2017-08-02T02:52:48.231Z,22.20
2017-08-02T02:55:14.632Z,23.80
2017-08-02T02:57:41.086Z,24.30
2017-08-02T03:00:07.780Z,22.20
2017-08-02T03:02:34.448Z,23.50
2017-08-02T03:05:00.850Z,22.37
2017-08-02T03:07:27.359Z,23.07
2017-08-02T03:09:53.864Z,22.60
2017-08-02T03:12:20.244Z,22.37
2017-08-02T03:14:46.985Z,23.47
2017-08-02T03:17:13.463Z,22.40
2017-08-02T03:19:40.186Z,22.93
2017-08-02T03:22:06.646Z,21.57
2017-08-02T03:24:33.043Z,22.63
2017-08-02T03:26:59.519Z,23.10
2017-08-02T03:29:25.920Z,23.80
2017-08-02T03:31:52.313Z,23.37
2017-08-02T03:34:19.575Z,23.20
2017-08-02T03:36:46.055Z,22.30
2017-08-02T03:39:12.805Z,23.73
2017-08-02T03:41:39.243Z,22.97
2017-08-02T03:44:05.652Z,23.20
2017-08-02T03:46:32.516Z,22.63
2017-08-02T03:48:58.935Z,22.63
2017-08-02T03:51:25.322Z,23.87
2017-08-02T03:53:51.714Z,22.63
2017-08-02T03:56:18.208Z,24.83
2017-08-02T03:58:44.611Z,23.40
2017-08-02T04:01:11.760Z,22.43
2017-08-02T04:03:38.892Z,24.93
2017-08-02T04:06:05.384Z,23.43
2017-08-02T04:08:32.476Z,23.77
2017-08-02T04:10:58.919Z,23.10
2017-08-02T04:13:26.059Z,24.20
2017-08-02T04:15:53.262Z,24.23
2017-08-02T04:18:20.159Z,23.80
2017-08-02T04:20:46.802Z,22.03
2017-08-02T04:23:13.339Z,23.63
2017-08-02T04:25:39.916Z,26.00
2017-08-02T04:28:06.332Z,23.47
2017-08-02T04:30:32.875Z,24.97
2017-08-02T04:32:59.428Z,24.87
2017-08-02T04:35:25.902Z,24.23
2017-08-02T04:37:54.223Z,24.30
2017-08-02T04:40:20.732Z,25.43
2017-08-02T04:42:47.284Z,25.07
2017-08-02T04:45:13.936Z,24.50
2017-08-02T04:47:40.403Z,23.20
2017-08-02T04:50:06.775Z,24.37
2017-08-02T04:52:33.156Z,25.37
2017-08-02T04:54:59.662Z,26.43
2017-08-02T04:57:26.094Z,25.33
2017-08-02T04:59:52.507Z,27.23
2017-08-02T05:02:18.915Z,25.65
2017-08-02T05:04:45.331Z,26.50
2017-08-02T05:07:11.735Z,24.37
2017-08-02T05:09:38.144Z,25.43
2017-08-02T05:12:04.575Z,25.33
2017-08-02T05:14:30.980Z,26.07
2017-08-02T05:16:57.422Z,25.60
2017-08-02T05:19:24.539Z,26.23
2017-08-02T05:21:50.975Z,25.50
2017-08-02T05:24:17.411Z,24.60
2017-08-02T05:26:43.974Z,27.17
2017-08-02T05:29:11.100Z,24.63
2017-08-02T05:31:37.531Z,25.03
2017-08-02T05:34:04.032Z,26.97
2017-08-02T05:36:30.427Z,26.00
2017-08-02T05:38:57.560Z,25.23
2017-08-02T05:41:23.972Z,26.27
2017-08-02T05:43:50.338Z,26.07
2017-08-02T05:46:17.622Z,25.53
2017-08-02T05:48:44.011Z,25.77
2017-08-02T05:51:10.428Z,24.43
2017-08-02T05:53:36.839Z,22.53
2017-08-02T05:56:03.228Z,24.00
2017-08-02T05:58:29.660Z,25.47
2017-08-02T06:00:56.815Z,27.60
2017-08-02T06:03:23.344Z,25.20
2017-08-02T06:05:51.171Z,24.40
2017-08-02T06:08:17.570Z,36.50
2017-08-02T06:10:43.970Z,32.93
2017-08-02T06:13:11.092Z,31.60
2017-08-02T06:15:37.496Z,39.03
2017-08-02T06:18:03.976Z,28.00
2017-08-02T06:20:31.204Z,26.80
2017-08-02T06:22:57.640Z,24.50
2017-08-02T06:25:24.076Z,25.53
2017-08-02T06:27:50.500Z,24.93
2017-08-02T06:30:16.927Z,24.53
2017-08-02T06:32:43.312Z,27.60
2017-08-02T06:35:09.736Z,28.33
2017-08-02T06:37:36.119Z,23.97
2017-08-02T06:40:02.543Z,25.77
2017-08-02T06:42:28.915Z,24.37
2017-08-02T06:44:55.311Z,25.67
2017-08-02T06:47:21.739Z,34.53
2017-08-02T06:49:48.128Z,24.73
2017-08-02T06:52:14.557Z,24.23
2017-08-02T06:54:40.920Z,26.40
2017-08-02T06:57:07.330Z,24.53
2017-08-02T06:59:33.731Z,25.67
2017-08-02T07:02:00.107Z,34.87
2017-08-02T07:04:26.534Z,21.53
2017-08-02T07:06:52.946Z,31.07
2017-08-02T07:09:19.435Z,22.60
2017-08-02T07:11:45.867Z,29.43
2017-08-02T07:14:12.274Z,22.67
2017-08-02T07:16:38.664Z,23.80
2017-08-02T07:19:05.911Z,21.67
2017-08-02T07:21:32.314Z,25.47
2017-08-02T07:23:58.711Z,21.23
2017-08-02T07:26:25.143Z,22.27
2017-08-02T07:28:51.520Z,16.27
2017-08-02T07:31:17.894Z,17.33
2017-08-02T07:33:44.331Z,17.20
2017-08-02T07:36:10.710Z,16.33
2017-08-02T07:38:37.110Z,16.83
2017-08-02T07:41:03.507Z,16.60
2017-08-02T07:43:29.886Z,15.97
2017-08-02T07:45:56.300Z,16.07
2017-08-02T07:48:22.719Z,15.33
2017-08-02T07:50:49.280Z,17.37
2017-08-02T07:53:15.686Z,17.10
2017-08-02T07:55:42.137Z,16.07
2017-08-02T07:58:08.555Z,16.50
2017-08-02T08:00:35.083Z,15.67
2017-08-02T08:03:01.450Z,15.77
2017-08-02T08:05:27.959Z,15.30
2017-08-02T08:07:54.472Z,15.30
2017-08-02T08:10:20.867Z,16.60
2017-08-02T08:12:47.323Z,14.83
2017-08-02T08:15:13.742Z,15.00
2017-08-02T08:17:40.163Z,15.13
2017-08-02T08:20:06.543Z,14.10
2017-08-02T08:22:32.943Z,15.10
2017-08-02T08:24:59.555Z,14.77
2017-08-02T08:27:25.947Z,13.77
2017-08-02T08:29:52.357Z,14.83
2017-08-02T08:32:18.804Z,14.77
2017-08-02T08:34:45.283Z,13.43
2017-08-02T08:37:11.731Z,12.70
2017-08-02T08:39:38.159Z,14.07
2017-08-02T08:42:04.632Z,12.70
2017-08-02T08:44:31.037Z,14.33
2017-08-02T08:46:57.467Z,15.30
2017-08-02T08:49:23.880Z,12.97
2017-08-02T08:51:50.328Z,14.13
2017-08-02T08:54:16.698Z,14.60
2017-08-02T08:56:43.132Z,15.07
2017-08-02T08:59:09.541Z,13.60
2017-08-02T09:01:36.290Z,14.17
2017-08-02T09:04:02.668Z,14.93
2017-08-02T09:06:29.104Z,13.20
2017-08-02T09:08:55.511Z,14.73
2017-08-02T09:11:21.931Z,14.17
2017-08-02T09:13:49.111Z,13.10
2017-08-02T09:16:16.288Z,14.40
2017-08-02T09:18:42.654Z,14.63
2017-08-02T09:21:09.065Z,15.20
2017-08-02T09:23:35.443Z,16.47
2017-08-02T09:26:01.853Z,16.40
2017-08-02T09:28:28.380Z,17.67
2017-08-02T09:30:54.756Z,18.00
2017-08-02T09:33:21.914Z,17.90
2017-08-02T09:35:48.344Z,15.80
2017-08-02T09:38:14.781Z,16.80
2017-08-02T09:40:41.226Z,15.13
2017-08-02T09:43:07.675Z,15.60
2017-08-02T09:45:34.104Z,16.03
2017-08-02T09:48:00.509Z,17.77
2017-08-02T09:50:26.908Z,16.07
2017-08-02T09:52:53.280Z,16.70
2017-08-02T09:55:19.684Z,16.10
2017-08-02T09:57:46.082Z,15.47
2017-08-02T10:00:12.490Z,14.47
2017-08-02T10:02:38.904Z,15.37
2017-08-02T10:05:05.346Z,14.87
2017-08-02T10:07:31.767Z,14.60
2017-08-02T10:09:58.192Z,15.33
2017-08-02T10:12:24.606Z,15.30
2017-08-02T10:14:51.228Z,15.10
2017-08-02T10:17:17.682Z,16.17
2017-08-02T10:19:44.089Z,15.23
2017-08-02T10:22:10.527Z,16.47
2017-08-02T10:24:36.931Z,15.73
2017-08-02T10:27:03.338Z,13.97
2017-08-02T10:29:29.736Z,16.83
2017-08-02T10:31:56.139Z,14.90
2017-08-02T10:34:22.514Z,19.20
2017-08-02T10:36:48.927Z,15.77
2017-08-02T10:39:15.355Z,14.83
2017-08-02T10:41:41.751Z,16.50
2017-08-02T10:44:08.155Z,19.20
2017-08-02T10:46:35.280Z,15.87
2017-08-02T10:49:01.665Z,14.17
2017-08-02T10:51:28.066Z,15.67
2017-08-02T10:53:55.208Z,15.90
2017-08-02T10:56:22.403Z,14.83
2017-08-02T10:58:48.780Z,14.63
2017-08-02T11:01:15.151Z,14.80
2017-08-02T11:03:41.555Z,14.00
2017-08-02T11:06:08.703Z,14.43
2017-08-02T11:08:35.959Z,13.67
2017-08-02T11:11:02.400Z,14.07
2017-08-02T11:13:28.811Z,14.67
2017-08-02T11:15:55.331Z,14.70
2017-08-02T11:18:21.719Z,15.07
2017-08-02T11:20:48.123Z,14.50
2017-08-02T11:23:15.240Z,14.93
2017-08-02T11:25:41.663Z,14.20
2017-08-02T11:28:08.075Z,15.60
2017-08-02T11:30:34.487Z,16.87
2017-08-02T11:33:00.996Z,14.03
2017-08-02T11:35:28.123Z,14.97
2017-08-02T11:37:54.555Z,15.50
2017-08-02T11:40:21.039Z,16.47
2017-08-02T11:42:54.340Z,16.10
2017-08-02T11:45:20.744Z,15.83
2017-08-02T11:47:48.016Z,16.10
2017-08-02T11:50:15.522Z,22.27
2017-08-02T11:52:41.908Z,15.93
2017-08-02T11:55:08.312Z,14.93
2017-08-02T11:57:35.001Z,16.30
2017-08-02T12:00:03.035Z,14.10
2017-08-02T12:02:29.404Z,14.77
2017-08-02T12:04:56.850Z,17.63
2017-08-02T12:07:23.298Z,15.80
2017-08-02T12:09:49.707Z,15.90
2017-08-02T12:12:16.244Z,15.50
2017-08-02T12:14:42.756Z,15.70
2017-08-02T12:17:09.168Z,15.50
2017-08-02T12:19:35.571Z,15.70
2017-08-02T12:22:01.999Z,16.87
2017-08-02T12:24:28.420Z,14.60
2017-08-02T12:26:54.811Z,15.80
2017-08-02T12:29:21.952Z,14.10
2017-08-02T12:31:48.319Z,13.80
2017-08-02T12:34:14.712Z,15.30
2017-08-02T12:36:41.156Z,13.37
2017-08-02T12:39:07.619Z,14.73
2017-08-02T12:41:34.011Z,14.70
2017-08-02T12:44:00.419Z,14.57
2017-08-02T12:46:26.832Z,12.97
2017-08-02T12:48:53.198Z,14.17
2017-08-02T12:51:19.604Z,14.23
2017-08-02T12:53:45.991Z,12.03
2017-08-02T12:56:12.423Z,12.60
2017-08-02T12:58:38.795Z,11.93
2017-08-02T13:01:05.208Z,13.07
2017-08-02T13:03:31.617Z,13.97
2017-08-02T13:05:58.371Z,13.03
2017-08-02T13:08:24.769Z,12.60
2017-08-02T13:10:51.156Z,12.40
2017-08-02T13:13:18.660Z,12.50
2017-08-02T13:15:45.887Z,12.53
2017-08-02T13:18:12.287Z,11.77
2017-08-02T13:20:38.693Z,12.10
2017-08-02T13:23:05.839Z,11.80
2017-08-02T13:25:32.275Z,12.30
2017-08-02T13:27:59.424Z,13.30
2017-08-02T13:30:25.885Z,12.53
2017-08-02T13:32:52.402Z,12.80
2017-08-02T13:35:19.548Z,12.67
2017-08-02T13:37:46.747Z,12.47
2017-08-02T13:40:13.290Z,12.23
2017-08-02T13:42:39.680Z,12.30
2017-08-02T13:45:06.100Z,12.63
2017-08-02T13:47:33.267Z,11.93
2017-08-02T13:49:59.655Z,13.43
2017-08-02T13:52:26.044Z,12.23
2017-08-02T13:54:52.458Z,13.17
2017-08-02T13:57:18.887Z,11.87
2017-08-02T13:59:45.409Z,11.23
2017-08-02T14:02:12.526Z,12.70
2017-08-02T14:04:38.907Z,13.03
2017-08-02T14:07:06.060Z,12.87
2017-08-02T14:09:32.476Z,12.77
2017-08-02T14:11:59.595Z,11.47
2017-08-02T14:14:26.115Z,13.33
2017-08-02T14:16:52.551Z,12.90
2017-08-02T14:19:19.063Z,13.50
2017-08-02T14:21:45.487Z,13.90
2017-08-02T14:24:12.111Z,13.13
2017-08-02T14:26:39.251Z,13.30
2017-08-02T14:29:05.634Z,12.40
2017-08-02T14:31:32.058Z,12.20
2017-08-02T14:33:58.546Z,13.57
2017-08-02T14:36:25.688Z,11.90
2017-08-02T14:38:52.119Z,13.30
2017-08-02T14:41:18.495Z,12.50
2017-08-02T14:43:44.939Z,10.90
2017-08-02T14:46:11.342Z,13.10
2017-08-02T14:48:37.778Z,13.37
2017-08-02T14:51:04.140Z,12.60
2017-08-02T14:53:30.831Z,13.10
2017-08-02T14:55:57.975Z,14.13
2017-08-02T14:58:24.385Z,12.80
2017-08-02T15:00:50.846Z,12.73
2017-08-02T15:03:17.232Z,14.37
2017-08-02T15:05:43.624Z,13.00
2017-08-02T15:08:10.855Z,12.47
2017-08-02T15:10:38.228Z,13.10
2017-08-02T15:13:04.666Z,13.87
2017-08-02T15:15:31.050Z,14.10
2017-08-02T15:17:57.628Z,14.10
2017-08-02T15:20:24.759Z,12.40
2017-08-02T15:22:51.195Z,13.83
2017-08-02T15:25:18.532Z,13.93
2017-08-02T15:27:44.973Z,13.67
2017-08-02T15:30:11.512Z,12.70
2017-08-02T15:32:38.682Z,13.90
2017-08-02T15:35:05.226Z,12.70
2017-08-02T15:37:31.918Z,14.23
2017-08-02T15:39:58.416Z,13.07
2017-08-02T15:42:24.858Z,12.87
2017-08-02T15:44:51.283Z,12.83
2017-08-02T15:47:17.698Z,12.77
2017-08-02T15:49:44.120Z,14.10
2017-08-02T15:52:10.608Z,13.90
2017-08-02T15:54:36.995Z,14.33
2017-08-02T15:57:03.411Z,12.83
2017-08-02T15:59:30.559Z,13.10
2017-08-02T16:01:56.968Z,13.83
2017-08-02T16:04:23.333Z,14.20
2017-08-02T16:06:50.466Z,14.37
2017-08-02T16:09:17.055Z,14.67
2017-08-02T16:11:44.311Z,15.17
2017-08-02T16:14:10.690Z,15.80
2017-08-02T16:16:37.204Z,16.23
2017-08-02T16:19:03.616Z,19.70
2017-08-02T16:21:30.277Z,17.27
2017-08-02T16:23:56.875Z,18.27
2017-08-02T16:26:23.255Z,18.23
2017-08-02T16:28:49.722Z,11.70
2017-08-02T16:31:16.371Z,12.80
2017-08-02T16:33:42.758Z,12.33
2017-08-02T16:36:09.201Z,11.70
2017-08-02T16:38:35.804Z,11.30
2017-08-02T16:41:02.223Z,10.57
2017-08-02T16:43:28.777Z,11.67
2017-08-02T16:45:55.366Z,13.53
2017-08-02T16:48:22.294Z,12.67
2017-08-02T16:50:48.772Z,15.17
2017-08-02T16:53:15.356Z,13.83
2017-08-02T16:55:41.944Z,14.40
2017-08-02T16:58:08.407Z,11.60
2017-08-02T17:00:34.859Z,11.77
2017-08-02T17:03:01.355Z,11.70
2017-08-02T17:05:27.789Z,11.47
2017-08-02T17:07:54.203Z,11.77
2017-08-02T17:10:20.602Z,11.20
2017-08-02T17:12:47.903Z,12.13
2017-08-02T17:15:14.288Z,12.47
2017-08-02T17:17:41.422Z,11.47
2017-08-02T17:20:08.163Z,11.30
2017-08-02T17:22:34.543Z,10.47
2017-08-02T17:25:00.908Z,11.80
2017-08-02T17:27:27.363Z,10.27
2017-08-02T17:29:54.531Z,10.83
2017-08-02T17:32:20.955Z,12.23
2017-08-02T17:34:48.082Z,10.67
2017-08-02T17:37:15.180Z,11.10
2017-08-02T17:39:41.593Z,11.30
2017-08-02T17:42:08.753Z,9.33
2017-08-02T17:44:35.142Z,11.10
2017-08-02T17:47:01.550Z,11.10
2017-08-02T17:49:27.959Z,10.87
2017-08-02T17:51:54.346Z,11.17
2017-08-02T17:54:20.731Z,11.60
2017-08-02T17:56:47.164Z,11.97
2017-08-02T17:59:13.555Z,10.70
2017-08-02T18:01:40.727Z,10.17
2017-08-02T18:04:07.115Z,10.37
2017-08-02T18:06:33.559Z,11.50
2017-08-02T18:08:59.944Z,11.67
2017-08-02T18:11:26.346Z,13.77
2017-08-02T18:13:53.490Z,14.73
2017-08-02T18:16:20.657Z,15.23
2017-08-02T18:18:47.135Z,15.73
2017-08-02T18:21:13.523Z,16.93
2017-08-02T18:23:39.912Z,14.93
2017-08-02T18:26:06.337Z,19.13
2017-08-02T18:28:33.067Z,17.40
2017-08-02T18:31:00.258Z,13.70
2017-08-02T18:33:27.747Z,16.70
2017-08-02T18:35:54.296Z,15.70
2017-08-02T18:38:21.175Z,18.47
2017-08-02T18:40:47.754Z,17.57
2017-08-02T18:43:14.160Z,19.77
2017-08-02T18:45:41.310Z,16.60
2017-08-02T18:48:08.472Z,15.93
2017-08-02T18:50:35.615Z,17.37
2017-08-02T18:53:02.774Z,16.30
2017-08-02T18:55:29.953Z,14.60
2017-08-02T18:57:56.717Z,12.87
2017-08-02T19:00:23.316Z,13.13
2017-08-02T19:02:50.691Z,17.07
2017-08-02T19:05:17.268Z,15.40
2017-08-02T19:07:44.699Z,16.97
2017-08-02T19:10:11.080Z,16.27
2017-08-02T19:12:38.197Z,15.10
2017-08-02T19:15:05.468Z,15.47
2017-08-02T19:17:32.822Z,16.03
2017-08-02T19:20:00.060Z,16.50
2017-08-02T19:22:26.700Z,15.17
2017-08-02T19:24:53.158Z,16.57
2017-08-02T19:27:19.689Z,17.27
2017-08-02T19:29:47.177Z,16.70
2017-08-02T19:32:14.269Z,19.57
2017-08-02T19:34:40.764Z,18.77
2017-08-02T19:37:07.400Z,16.23
2017-08-02T19:39:35.632Z,15.67
2017-08-02T19:42:03.445Z,17.23
2017-08-02T19:44:35.814Z,16.23
2017-08-02T19:47:02.403Z,15.67
2017-08-02T19:52:21.892Z,15.57
2017-08-02T19:54:48.331Z,15.17
2017-08-02T19:57:15.595Z,16.60
2017-08-02T19:59:43.088Z,15.83
2017-08-02T20:02:09.544Z,14.93
2017-08-02T20:04:36.174Z,12.60
2017-08-02T20:07:02.612Z,12.63
2017-08-02T20:09:29.975Z,13.60
2017-08-02T20:11:56.375Z,15.07
2017-08-02T20:14:22.976Z,13.27
2017-08-02T20:16:49.607Z,13.93
2017-08-02T20:19:15.992Z,14.03
2017-08-02T20:21:42.714Z,13.80
2017-08-02T20:24:10.465Z,14.37
2017-08-02T20:26:37.032Z,14.23
2017-08-02T20:29:03.667Z,13.57
2017-08-02T20:31:30.083Z,14.30
2017-08-02T20:33:56.796Z,13.67
2017-08-02T20:36:23.266Z,13.27
2017-08-02T20:38:50.468Z,13.63
2017-08-02T20:41:17.022Z,12.73
2017-08-02T20:43:43.499Z,12.20
2017-08-02T20:46:09.916Z,13.70
2017-08-02T20:48:36.350Z,13.10
2017-08-02T20:51:03.025Z,10.87
2017-08-02T20:53:29.412Z,10.83
2017-08-02T20:55:55.883Z,10.77
2017-08-02T20:58:22.379Z,8.97
2017-08-02T21:00:48.767Z,8.43
2017-08-02T21:03:15.198Z,10.07
2017-08-02T21:05:41.631Z,9.23
2017-08-02T21:08:08.030Z,9.93
2017-08-02T21:10:50.219Z,8.90
2017-08-02T21:13:16.606Z,9.00
2017-08-02T21:15:43.000Z,9.50
2017-08-02T21:18:09.416Z,9.10
2017-08-02T21:20:35.792Z,9.30
2017-08-02T21:23:02.203Z,9.93
2017-08-02T21:25:28.618Z,10.60
2017-08-02T21:27:55.035Z,9.93
2017-08-02T21:30:21.452Z,10.13
2017-08-02T21:32:47.892Z,10.97
2017-08-02T21:35:15.039Z,10.90
2017-08-02T21:37:42.251Z,10.37
2017-08-02T21:40:08.779Z,8.60
2017-08-02T21:42:35.163Z,9.97
2017-08-02T21:45:01.535Z,10.97
2017-08-02T21:47:27.935Z,10.40
2017-08-02T21:49:54.338Z,11.90
2017-08-02T21:52:20.755Z,11.40
2017-08-02T21:54:47.135Z,11.30
2017-08-02T21:57:13.575Z,10.47
2017-08-02T21:59:39.992Z,10.40
2017-08-02T22:02:06.483Z,10.83
2017-08-02T22:04:32.923Z,11.07
2017-08-02T22:06:59.319Z,10.40
2017-08-02T22:09:25.757Z,10.50
2017-08-02T22:11:52.255Z,10.50
2017-08-02T22:14:18.702Z,10.37
2017-08-02T22:16:45.131Z,10.33
2017-08-02T22:19:11.490Z,11.07
2017-08-02T22:21:37.859Z,10.87
2017-08-02T22:24:11.347Z,11.10
2017-08-02T22:26:37.715Z,10.33
2017-08-02T22:29:04.116Z,11.80
2017-08-02T22:31:30.639Z,12.70
2017-08-02T22:33:57.778Z,12.87
2017-08-02T22:36:24.390Z,15.17
2017-08-02T22:38:50.755Z,16.07
2017-08-02T22:41:17.159Z,15.70
2017-08-02T22:43:43.567Z,15.00
2017-08-02T22:46:09.977Z,15.47
2017-08-02T22:48:37.248Z,15.80
2017-08-02T22:51:04.348Z,13.70
2017-08-02T22:53:30.763Z,13.77
2017-08-02T22:56:12.099Z,16.00
2017-08-02T22:58:39.203Z,13.00
2017-08-02T23:01:05.626Z,13.90
2017-08-02T23:03:32.036Z,13.07
2017-08-02T23:05:58.439Z,12.73
2017-08-02T23:08:24.850Z,11.50
2017-08-02T23:10:51.207Z,10.60
2017-08-02T23:13:18.439Z,11.40
2017-08-02T23:15:44.828Z,10.63
2017-08-02T23:18:11.211Z,10.00
2017-08-02T23:20:37.613Z,9.80
2017-08-02T23:23:03.975Z,9.57
2017-08-02T23:25:30.412Z,10.57
2017-08-02T23:27:56.822Z,10.80
2017-08-02T23:30:23.263Z,9.37
2017-08-02T23:32:49.661Z,10.43
2017-08-02T23:35:16.027Z,9.90
2017-08-02T23:37:42.547Z,11.73
2017-08-02T23:40:08.907Z,9.60
2017-08-02T23:42:35.267Z,9.17
2017-08-02T23:45:01.664Z,11.23
2017-08-02T23:47:28.071Z,12.37
2017-08-02T23:49:54.510Z,9.80
2017-08-02T23:52:20.867Z,11.00
2017-08-02T23:54:47.975Z,9.67
2017-08-02T23:57:14.386Z,10.70
2017-08-02T23:59:40.788Z,11.40
